createdAt,value
2022-11-24T00:01:13.455Z,1.75
2022-11-24T00:03:15.350Z,1.87
2022-11-24T00:05:17.026Z,1.76
2022-11-24T00:07:18.678Z,1.84
2022-11-24T00:09:20.159Z,1.89
2022-11-24T00:11:25.217Z,1.76
2022-11-24T00:13:27.319Z,1.85
2022-11-24T00:15:29.035Z,1.86
2022-11-24T00:17:30.512Z,1.81
2022-11-24T00:19:32.101Z,1.87
2022-11-24T00:21:33.832Z,1.77
2022-11-24T00:23:36.424Z,1.84
2022-11-24T00:25:38.075Z,1.84
2022-11-24T00:27:40.949Z,1.94
2022-11-24T00:29:42.579Z,1.74
2022-11-24T00:31:43.997Z,1.78
2022-11-24T00:33:46.701Z,1.92
2022-11-24T00:35:54.556Z,1.58
2022-11-24T00:37:56.210Z,1.65
2022-11-24T00:39:57.757Z,1.79
2022-11-24T00:41:59.385Z,1.91
2022-11-24T00:44:02.553Z,1.88
2022-11-24T00:46:04.476Z,2.03
2022-11-24T00:48:06.468Z,1.83
2022-11-24T00:50:08.760Z,1.85
2022-11-24T00:52:10.479Z,2.01
2022-11-24T00:54:12.170Z,1.90
2022-11-24T00:56:13.815Z,1.85
2022-11-24T00:58:15.745Z,1.90
2022-11-24T01:00:19.200Z,1.73
2022-11-24T01:02:20.854Z,1.61
2022-11-24T01:04:22.310Z,1.66
2022-11-24T01:06:25.492Z,1.63
2022-11-24T01:08:27.125Z,1.57
2022-11-24T01:10:28.552Z,1.66
2022-11-24T01:12:30.200Z,1.70
2022-11-24T01:14:32.256Z,1.72
2022-11-24T01:16:35.670Z,1.63
2022-11-24T01:18:37.313Z,1.61
2022-11-24T01:20:38.958Z,1.76
2022-11-24T01:22:40.460Z,1.81
2022-11-24T01:24:42.092Z,1.96
2022-11-24T01:26:43.704Z,1.71
2022-11-24T01:28:47.357Z,1.88
2022-11-24T01:30:57.346Z,1.76
2022-11-24T01:33:00.478Z,1.91
2022-11-24T01:35:02.218Z,1.70
2022-11-24T01:37:03.645Z,1.53
2022-11-24T01:39:05.337Z,1.57
2022-11-24T01:41:07.965Z,1.68
2022-11-24T01:43:16.386Z,1.61
2022-11-24T01:45:32.425Z,1.43
2022-11-24T01:47:36.165Z,1.50
2022-11-24T01:49:44.525Z,1.35
2022-11-24T01:51:52.936Z,1.32
2022-11-24T01:53:59.132Z,1.27
2022-11-24T01:56:00.952Z,1.34
2022-11-24T01:58:06.565Z,1.20
2022-11-24T02:00:10.877Z,1.44
2022-11-24T02:02:13.373Z,1.35
2022-11-24T02:04:19.453Z,1.45
2022-11-24T02:06:25.434Z,1.51
2022-11-24T02:08:34.890Z,1.64
2022-11-24T02:10:37.457Z,1.71
2022-11-24T02:12:42.196Z,1.76
2022-11-24T02:14:44.690Z,1.81
2022-11-24T02:16:49.503Z,1.85
2022-11-24T02:18:51.580Z,1.87
2022-11-24T02:20:53.238Z,1.97
2022-11-24T02:22:59.443Z,2.05
2022-11-24T02:25:06.757Z,1.72
2022-11-24T02:27:10.628Z,1.73
2022-11-24T02:29:14.159Z,1.74
2022-11-24T02:31:15.958Z,1.70
2022-11-24T02:33:19.282Z,1.58
2022-11-24T02:35:21.148Z,1.66
2022-11-24T02:37:22.864Z,1.69
2022-11-24T02:39:24.361Z,1.77
2022-11-24T02:41:27.644Z,1.65
2022-11-24T02:43:35.219Z,1.58
2022-11-24T02:45:37.002Z,1.43
2022-11-24T02:47:38.646Z,1.45
2022-11-24T02:49:40.135Z,1.33
2022-11-24T02:51:41.870Z,1.19
2022-11-24T02:53:43.596Z,1.36
2022-11-24T02:55:45.157Z,1.34
2022-11-24T02:57:47.100Z,1.47
2022-11-24T02:59:50.159Z,1.42
2022-11-24T03:01:52.152Z,1.38
2022-11-24T03:03:53.846Z,1.41
2022-11-24T03:05:55.241Z,1.48
2022-11-24T03:07:56.953Z,1.31
2022-11-24T03:09:58.670Z,1.26
2022-11-24T03:12:00.113Z,1.25
2022-11-24T03:14:01.832Z,1.34
2022-11-24T03:16:07.713Z,1.29
2022-11-24T03:18:09.437Z,1.16
2022-11-24T03:20:11.376Z,1.33
2022-11-24T03:22:13.392Z,1.34
2022-11-24T03:24:15.035Z,1.33
2022-11-24T03:26:18.858Z,1.22
2022-11-24T03:28:20.531Z,1.11
2022-11-24T03:30:21.949Z,1.01
2022-11-24T03:32:25.175Z,1.30
2022-11-24T03:34:26.770Z,1.25
2022-11-24T03:36:28.436Z,1.27
2022-11-24T03:38:29.975Z,1.37
2022-11-24T03:40:31.583Z,1.48
2022-11-24T03:42:33.580Z,1.67
2022-11-24T03:44:35.438Z,1.46
2022-11-24T03:46:37.370Z,1.54
2022-11-24T03:48:40.494Z,1.43
2022-11-24T03:50:42.242Z,1.45
2022-11-24T03:52:43.921Z,1.26
2022-11-24T03:54:45.451Z,1.15
2022-11-24T03:56:47.116Z,1.02
2022-11-24T03:58:48.552Z,1.18
2022-11-24T04:00:51.426Z,1.31
2022-11-24T04:02:53.228Z,1.37
2022-11-24T04:04:56.264Z,1.33
2022-11-24T04:06:57.878Z,1.49
2022-11-24T04:09:00.208Z,1.53
2022-11-24T04:11:01.851Z,1.46
2022-11-24T04:13:03.597Z,1.30
2022-11-24T04:15:06.310Z,1.31
2022-11-24T04:17:08.007Z,1.25
2022-11-24T04:19:09.529Z,1.13
2022-11-24T04:21:12.608Z,1.14
2022-11-24T04:23:14.241Z,1.37
2022-11-24T04:25:15.984Z,1.33
2022-11-24T04:27:17.466Z,1.28
2022-11-24T04:29:19.071Z,1.29
2022-11-24T04:31:20.777Z,1.23
2022-11-24T04:33:22.269Z,1.14
2022-11-24T04:35:24.626Z,0.91
2022-11-24T04:37:27.763Z,0.88
2022-11-24T04:39:29.497Z,1.07
2022-11-24T04:41:30.930Z,0.94
2022-11-24T04:43:37.732Z,0.80
2022-11-24T04:45:41.971Z,0.69
2022-11-24T04:47:43.606Z,0.90
2022-11-24T04:49:47.021Z,0.74
2022-11-24T04:51:48.807Z,0.78
2022-11-24T04:53:51.764Z,0.87
2022-11-24T04:55:53.357Z,0.92
2022-11-24T04:57:55.253Z,1.05
2022-11-24T04:59:56.859Z,1.13
2022-11-24T05:01:58.613Z,1.08
2022-11-24T05:04:00.535Z,1.00
2022-11-24T05:06:02.443Z,1.03
2022-11-24T05:08:04.618Z,1.00
2022-11-24T05:10:08.517Z,1.20
2022-11-24T05:12:10.091Z,1.10
2022-11-24T05:14:11.641Z,1.16
2022-11-24T05:16:13.394Z,1.17
2022-11-24T05:18:15.517Z,1.18
2022-11-24T05:20:17.420Z,1.00
2022-11-24T05:22:19.048Z,1.13
2022-11-24T05:24:20.402Z,1.18
2022-11-24T05:26:23.320Z,1.31
2022-11-24T05:28:24.909Z,1.25
2022-11-24T05:30:26.614Z,1.41
2022-11-24T05:32:27.954Z,1.41
2022-11-24T05:34:29.626Z,1.43
2022-11-24T05:36:30.994Z,1.40
2022-11-24T05:38:33.240Z,1.32
2022-11-24T05:40:34.816Z,1.21
2022-11-24T05:42:40.890Z,1.13
2022-11-24T05:44:46.630Z,1.26
2022-11-24T05:46:48.349Z,1.23
2022-11-24T05:48:49.951Z,1.25
2022-11-24T05:50:54.321Z,1.26
2022-11-24T05:52:55.913Z,1.20
2022-11-24T05:54:57.451Z,1.29
2022-11-24T05:56:59.001Z,1.06
2022-11-24T05:59:08.191Z,1.03
2022-11-24T06:01:11.311Z,0.98
2022-11-24T06:03:13.132Z,0.91
2022-11-24T06:05:14.880Z,0.78
2022-11-24T06:07:16.736Z,0.81
2022-11-24T06:09:18.423Z,0.81
2022-11-24T06:11:19.802Z,0.74
2022-11-24T06:13:21.717Z,0.73
2022-11-24T06:15:24.819Z,0.76
2022-11-24T06:17:26.401Z,0.57
2022-11-24T06:19:28.033Z,0.56
2022-11-24T06:21:30.161Z,0.82
2022-11-24T06:23:31.838Z,0.83
2022-11-24T06:25:33.255Z,1.00
2022-11-24T06:27:34.801Z,0.83
2022-11-24T06:29:36.414Z,0.77
2022-11-24T06:31:39.425Z,0.84
2022-11-24T06:33:41.130Z,0.75
2022-11-24T06:35:42.714Z,0.78
2022-11-24T06:37:44.295Z,0.86
2022-11-24T06:39:45.947Z,0.68
2022-11-24T06:41:50.280Z,0.76
2022-11-24T06:43:51.970Z,0.68
2022-11-24T06:45:53.474Z,0.66
2022-11-24T06:47:56.863Z,0.71
2022-11-24T06:50:00.573Z,0.72
2022-11-24T06:52:02.405Z,0.82
2022-11-24T06:54:09.481Z,0.83
2022-11-24T06:56:16.311Z,0.97
2022-11-24T06:58:18.604Z,0.98
2022-11-24T07:00:20.530Z,1.01
2022-11-24T07:02:22.105Z,1.06
2022-11-24T07:04:25.033Z,1.19
2022-11-24T07:06:26.995Z,1.21
2022-11-24T07:08:28.612Z,1.15
2022-11-24T07:10:30.201Z,1.40
2022-11-24T07:12:34.282Z,1.48
2022-11-24T07:14:36.288Z,1.49
2022-11-24T07:16:40.314Z,1.41
2022-11-24T07:18:42.291Z,1.25
2022-11-24T07:20:45.582Z,1.26
2022-11-24T07:22:47.206Z,1.27
2022-11-24T07:24:48.787Z,1.34
2022-11-24T07:26:50.457Z,1.26
2022-11-24T07:28:52.014Z,1.15
2022-11-24T07:30:53.642Z,1.07
2022-11-24T07:32:58.779Z,1.22
2022-11-24T07:35:00.435Z,1.36
2022-11-24T07:37:03.372Z,1.50
2022-11-24T07:39:06.372Z,1.61
2022-11-24T07:41:10.711Z,1.53
2022-11-24T07:43:15.864Z,1.66
2022-11-24T07:45:24.928Z,1.64
2022-11-24T07:47:26.505Z,1.66
2022-11-24T07:49:28.147Z,1.33
2022-11-24T07:51:29.584Z,1.32
2022-11-24T07:53:33.092Z,1.42
2022-11-24T07:55:34.758Z,1.34
2022-11-24T07:57:36.596Z,1.55
2022-11-24T07:59:38.177Z,1.46
2022-11-24T08:01:40.144Z,1.76
2022-11-24T08:03:42.781Z,1.85
2022-11-24T08:06:16.056Z,1.76
2022-11-24T08:08:14.539Z,1.71
2022-11-24T08:10:18.018Z,1.45
2022-11-24T08:12:19.844Z,1.41
2022-11-24T08:14:21.656Z,1.65
2022-11-24T08:16:23.634Z,1.88
2022-11-24T08:18:25.265Z,1.98
2022-11-24T08:20:26.937Z,1.93
2022-11-24T08:22:28.308Z,1.93
2022-11-24T08:24:29.836Z,1.95
2022-11-24T08:26:32.774Z,1.98
2022-11-24T08:28:34.975Z,2.02
2022-11-24T08:30:36.622Z,2.15
2022-11-24T08:32:37.993Z,1.93
2022-11-24T08:34:39.485Z,1.97
2022-11-24T08:36:41.168Z,1.83
2022-11-24T08:38:42.885Z,1.87
2022-11-24T08:40:44.494Z,1.66
2022-11-24T08:42:47.450Z,2.07
2022-11-24T08:44:49.109Z,2.18
2022-11-24T08:46:50.612Z,2.31
2022-11-24T08:48:53.934Z,2.31
2022-11-24T08:50:55.881Z,2.50
2022-11-24T08:52:57.507Z,2.54
2022-11-24T08:54:58.949Z,2.59
2022-11-24T08:57:00.707Z,2.51
2022-11-24T08:59:04.894Z,2.60
2022-11-24T09:01:08.661Z,2.29
2022-11-24T09:03:11.510Z,2.51
2022-11-24T09:05:49.672Z,2.29
2022-11-24T09:07:34.799Z,2.25
2022-11-24T09:09:36.286Z,2.10
2022-11-24T09:11:37.870Z,2.32
2022-11-24T09:13:40.644Z,2.42
2022-11-24T09:15:43.679Z,2.78
2022-11-24T09:17:45.260Z,2.65
2022-11-24T09:19:46.787Z,2.88
2022-11-24T09:21:48.390Z,2.82
2022-11-24T09:23:50.598Z,2.95
2022-11-24T09:25:52.157Z,3.02
2022-11-24T09:27:53.756Z,2.69
2022-11-24T09:29:55.121Z,2.88
2022-11-24T09:32:02.119Z,2.83
2022-11-24T09:34:11.300Z,3.21
2022-11-24T09:36:13.658Z,3.05
2022-11-24T09:38:15.413Z,2.99
2022-11-24T09:40:18.035Z,3.08
2022-11-24T09:42:30.995Z,3.25
2022-11-24T09:44:49.351Z,3.35
2022-11-24T09:47:00.617Z,3.45
2022-11-24T09:49:06.627Z,3.55
2022-11-24T09:51:12.461Z,3.37
2022-11-24T09:53:20.172Z,3.27
2022-11-24T09:55:29.504Z,3.29
2022-11-24T09:57:37.440Z,3.37
2022-11-24T09:59:41.084Z,3.56
2022-11-24T10:01:44.424Z,3.56
2022-11-24T10:03:48.676Z,3.69
2022-11-24T10:05:53.273Z,3.26
2022-11-24T10:08:11.624Z,3.49
2022-11-24T10:10:24.331Z,3.68
2022-11-24T10:12:41.194Z,3.72
2022-11-24T10:15:07.679Z,3.57
2022-11-24T10:17:23.974Z,3.63
2022-11-24T10:19:40.131Z,3.51
2022-11-24T10:22:05.138Z,3.64
2022-11-24T10:24:39.182Z,3.68
2022-11-24T10:26:47.506Z,3.89
2022-11-24T10:28:53.412Z,3.87
2022-11-24T10:31:11.540Z,3.98
2022-11-24T10:33:24.254Z,3.96
2022-11-24T10:35:36.221Z,4.04
2022-11-24T10:37:45.698Z,4.18
2022-11-24T10:40:00.016Z,4.06
2022-11-24T10:42:10.811Z,3.94
2022-11-24T10:44:13.260Z,3.91
2022-11-24T10:46:19.493Z,3.99
2022-11-24T10:48:26.006Z,4.09
2022-11-24T10:50:31.378Z,4.17
2022-11-24T10:52:40.471Z,4.29
2022-11-24T10:54:56.410Z,4.45
2022-11-24T10:56:57.989Z,4.38
2022-11-24T10:59:19.429Z,4.44
2022-11-24T11:01:30.501Z,4.29
2022-11-24T11:03:33.038Z,4.35
2022-11-24T11:05:39.414Z,4.60
2022-11-24T11:07:41.012Z,4.77
2022-11-24T11:09:42.726Z,4.82
2022-11-24T11:11:46.634Z,4.92
2022-11-24T11:13:58.234Z,5.15
2022-11-24T11:16:19.126Z,5.20
2022-11-24T11:18:21.588Z,5.42
2022-11-24T11:20:28.768Z,5.09
2022-11-24T11:22:32.774Z,5.17
2022-11-24T11:24:34.373Z,5.15
2022-11-24T11:26:36.798Z,5.17
2022-11-24T11:28:39.705Z,5.05
2022-11-24T11:35:25.931Z,5.25
2022-11-24T11:37:30.872Z,5.01
2022-11-24T11:39:35.248Z,4.70
2022-11-24T11:41:42.106Z,5.14
2022-11-24T11:43:47.891Z,5.28
2022-11-24T11:45:59.329Z,5.12
2022-11-24T11:48:17.676Z,5.07
2022-11-24T11:50:25.440Z,5.15
2022-11-24T11:53:00.028Z,5.27
2022-11-24T11:55:31.842Z,5.18
2022-11-24T11:57:38.796Z,5.33
2022-11-24T12:00:12.704Z,5.45
2022-11-24T12:02:53.290Z,5.22
2022-11-24T12:05:00.046Z,5.02
2022-11-24T12:07:43.945Z,5.19
2022-11-24T12:09:57.778Z,5.13
2022-11-24T12:12:15.500Z,5.29
2022-11-24T12:14:29.467Z,5.56
2022-11-24T12:16:44.043Z,5.54
2022-11-24T12:18:58.243Z,5.49
2022-11-24T12:21:09.039Z,5.59
2022-11-24T12:23:22.097Z,5.29
2022-11-24T12:25:29.212Z,5.42
2022-11-24T12:27:41.850Z,5.43
2022-11-24T12:29:56.982Z,5.73
2022-11-24T12:32:11.472Z,5.60
2022-11-24T12:34:29.228Z,5.81
2022-11-24T12:36:44.538Z,5.77
2022-11-24T12:38:56.977Z,5.65
2022-11-24T12:43:40.337Z,5.97
2022-11-24T12:45:49.917Z,5.99
2022-11-24T12:48:26.907Z,5.89
2022-11-24T12:50:33.018Z,5.94
2022-11-24T12:52:40.156Z,5.91
2022-11-24T12:54:41.758Z,5.90
2022-11-24T12:56:45.019Z,5.86
2022-11-24T12:58:54.425Z,5.76
2022-11-24T13:01:11.679Z,5.84
2022-11-24T13:03:30.677Z,5.81
2022-11-24T13:05:41.215Z,5.73
2022-11-24T13:07:47.487Z,5.47
2022-11-24T13:10:53.993Z,5.67
2022-11-24T13:12:56.481Z,6.07
2022-11-24T13:14:58.314Z,6.05
2022-11-24T13:19:24.885Z,6.06
2022-11-24T13:21:50.357Z,5.97
2022-11-24T13:23:56.501Z,6.14
2022-11-24T13:26:27.662Z,6.06
2022-11-24T13:29:09.243Z,6.09
2022-11-24T13:31:22.723Z,6.21
2022-11-24T13:33:30.481Z,6.18
2022-11-24T13:35:32.107Z,6.04
2022-11-24T13:37:49.204Z,5.95
2022-11-24T13:39:53.186Z,5.97
2022-11-24T13:42:03.585Z,5.94
2022-11-24T13:44:23.215Z,5.96
2022-11-24T13:47:04.873Z,5.90
2022-11-24T13:49:13.919Z,5.71
2022-11-24T13:51:21.368Z,5.90
2022-11-24T13:53:31.419Z,5.52
2022-11-24T13:55:36.445Z,5.53
2022-11-24T13:57:39.586Z,5.58
2022-11-24T13:59:41.820Z,5.26
2022-11-24T14:01:44.665Z,5.17
2022-11-24T14:04:29.787Z,5.29
2022-11-24T14:06:29.595Z,5.08
2022-11-24T14:08:37.520Z,5.02
2022-11-24T14:10:41.064Z,4.96
2022-11-24T14:12:42.628Z,5.11
2022-11-24T14:14:44.972Z,5.08
2022-11-24T14:16:46.606Z,5.27
2022-11-24T14:18:49.692Z,5.31
2022-11-24T14:20:51.300Z,5.42
2022-11-24T14:22:53.639Z,5.48
2022-11-24T14:24:58.148Z,5.53
2022-11-24T14:27:01.098Z,5.30
2022-11-24T14:29:07.344Z,5.42
2022-11-24T14:31:16.454Z,5.41
2022-11-24T14:33:19.746Z,5.23
2022-11-24T14:35:23.548Z,5.30
2022-11-24T14:37:25.169Z,5.41
2022-11-24T14:39:27.152Z,5.60
2022-11-24T14:41:31.872Z,5.82
2022-11-24T14:43:33.603Z,5.72
2022-11-24T14:45:35.532Z,5.65
2022-11-24T14:47:44.642Z,5.42
2022-11-24T14:49:46.718Z,5.48
2022-11-24T14:51:55.469Z,5.65
2022-11-24T14:54:00.748Z,5.46
2022-11-24T14:56:23.315Z,5.66
2022-11-24T14:58:31.935Z,5.65
2022-11-24T15:00:33.869Z,5.45
2022-11-24T15:02:39.345Z,5.63
2022-11-24T15:05:02.671Z,5.38
2022-11-24T15:07:13.866Z,5.43
2022-11-24T15:09:28.313Z,5.54
2022-11-24T15:11:30.641Z,5.61
2022-11-24T15:13:36.522Z,5.56
2022-11-24T15:15:39.263Z,5.71
2022-11-24T15:17:47.582Z,5.89
2022-11-24T15:19:53.524Z,5.87
2022-11-24T15:21:55.156Z,5.90
2022-11-24T15:24:14.936Z,5.88
2022-11-24T15:26:28.831Z,5.95
2022-11-24T15:28:33.534Z,5.87
2022-11-24T15:30:36.398Z,5.90
2022-11-24T15:32:48.651Z,5.80
2022-11-24T15:34:50.154Z,5.76
2022-11-24T15:36:51.690Z,5.71
2022-11-24T15:38:53.195Z,5.65
2022-11-24T15:40:56.126Z,5.66
2022-11-24T15:43:01.940Z,5.71
2022-11-24T15:45:09.318Z,5.61
2022-11-24T15:47:10.878Z,5.58
2022-11-24T15:49:12.589Z,5.67
2022-11-24T15:51:14.486Z,5.62
2022-11-24T15:53:19.305Z,5.31
2022-11-24T15:55:22.202Z,5.44
2022-11-24T15:57:23.982Z,5.62
2022-11-24T15:59:25.509Z,5.70
2022-11-24T16:01:29.365Z,5.56
2022-11-24T16:03:48.257Z,5.77
2022-11-24T16:05:53.964Z,5.51
2022-11-24T16:07:55.604Z,5.49
2022-11-24T16:09:57.197Z,5.46
2022-11-24T16:11:59.109Z,5.17
2022-11-24T16:14:00.688Z,5.29
2022-11-24T16:16:02.350Z,5.33
2022-11-24T16:18:06.263Z,5.51
2022-11-24T16:20:08.768Z,5.65
2022-11-24T16:22:10.294Z,5.48
2022-11-24T16:24:11.712Z,5.53
2022-11-24T16:26:13.399Z,5.67
2022-11-24T16:28:15.034Z,5.61
2022-11-24T16:30:16.916Z,5.59
2022-11-24T16:32:18.515Z,5.61
2022-11-24T16:34:21.510Z,5.59
2022-11-24T16:36:23.083Z,5.68
2022-11-24T16:38:24.794Z,5.55
2022-11-24T16:40:26.394Z,5.65
2022-11-24T16:42:28.384Z,5.61
2022-11-24T16:44:29.923Z,5.67
2022-11-24T16:46:31.348Z,5.48
2022-11-24T16:48:35.919Z,5.53
2022-11-24T16:50:39.007Z,5.48
2022-11-24T16:52:40.572Z,5.34
2022-11-24T16:54:41.912Z,5.29
2022-11-24T16:56:43.514Z,5.44
2022-11-24T16:58:45.074Z,5.24
2022-11-24T17:00:46.428Z,5.43
2022-11-24T17:02:48.193Z,5.28
2022-11-24T17:04:49.840Z,5.22
2022-11-24T17:06:52.777Z,5.32
2022-11-24T17:08:55.229Z,5.27
2022-11-24T17:10:56.814Z,5.08
2022-11-24T17:12:58.351Z,5.26
2022-11-24T17:15:30.493Z,5.14
2022-11-24T17:17:21.331Z,4.94
2022-11-24T17:19:22.970Z,4.89
2022-11-24T17:21:26.722Z,4.84
2022-11-24T17:23:29.668Z,5.01
2022-11-24T17:25:31.975Z,5.06
2022-11-24T17:27:33.608Z,5.05
2022-11-24T17:29:35.179Z,4.96
2022-11-24T17:31:36.780Z,5.27
2022-11-24T17:33:38.435Z,5.07
2022-11-24T17:35:39.944Z,4.98
2022-11-24T17:37:41.280Z,4.89
2022-11-24T17:39:54.777Z,4.90
2022-11-24T17:42:07.736Z,5.28
2022-11-24T17:44:09.569Z,5.52
2022-11-24T17:46:11.493Z,5.61
2022-11-24T17:48:13.213Z,5.69
2022-11-24T17:50:14.872Z,5.73
2022-11-24T17:52:16.882Z,5.49
2022-11-24T17:56:41.994Z,4.88
2022-11-24T17:58:43.749Z,4.91
2022-11-24T18:00:45.469Z,5.20
2022-11-24T18:02:47.114Z,5.50
2022-11-24T18:04:49.051Z,5.48
2022-11-24T18:06:50.639Z,5.44
2022-11-24T18:08:53.392Z,5.45
2022-11-24T18:11:03.003Z,5.32
2022-11-24T18:13:06.232Z,5.26
2022-11-24T18:15:08.638Z,5.27
2022-11-24T18:17:10.302Z,5.10
2022-11-24T18:19:12.104Z,4.96
2022-11-24T18:21:16.350Z,4.78
2022-11-24T18:23:18.541Z,4.79
2022-11-24T18:25:20.174Z,4.58
2022-11-24T18:27:21.790Z,4.64
2022-11-24T18:29:24.732Z,4.87
2022-11-24T18:31:26.468Z,4.92
2022-11-24T18:33:28.033Z,5.16
2022-11-24T18:35:29.529Z,5.22
2022-11-24T18:37:31.177Z,4.89
2022-11-24T18:39:32.822Z,4.93
2022-11-24T18:41:35.129Z,5.03
2022-11-24T18:43:36.833Z,5.15
2022-11-24T18:45:39.836Z,5.08
2022-11-24T18:47:41.465Z,4.96
2022-11-24T18:49:42.984Z,4.80
2022-11-24T18:51:45.006Z,4.67
2022-11-24T18:53:50.629Z,4.50
2022-11-24T18:55:56.879Z,4.61
2022-11-24T18:57:58.401Z,4.65
2022-11-24T18:59:59.788Z,4.63
2022-11-24T19:02:02.811Z,4.67
2022-11-24T19:04:04.494Z,4.56
2022-11-24T19:06:08.043Z,4.42
2022-11-24T19:08:09.606Z,4.46
2022-11-24T19:10:11.349Z,4.40
2022-11-24T19:12:13.148Z,4.45
2022-11-24T19:14:17.489Z,4.42
2022-11-24T19:16:20.467Z,4.50
2022-11-24T19:18:23.513Z,4.84
2022-11-24T19:20:28.575Z,4.78
2022-11-24T19:22:30.073Z,4.65
2022-11-24T19:24:31.436Z,4.47
2022-11-24T19:26:33.222Z,4.31
2022-11-24T19:28:34.885Z,4.11
2022-11-24T19:30:36.488Z,3.98
2022-11-24T19:32:37.885Z,4.01
2022-11-24T19:34:40.804Z,4.06
2022-11-24T19:36:42.529Z,4.03
2022-11-24T19:38:49.533Z,4.05
2022-11-24T19:40:51.053Z,4.01
2022-11-24T19:42:53.127Z,3.98
2022-11-24T19:44:56.673Z,3.96
2022-11-24T19:46:58.510Z,3.89
2022-11-24T19:49:00.765Z,3.92
2022-11-24T19:51:05.647Z,3.89
2022-11-24T19:53:07.257Z,4.08
2022-11-24T19:55:11.630Z,4.33
2022-11-24T19:57:13.194Z,4.41
2022-11-24T19:59:14.799Z,4.38
2022-11-24T20:01:17.915Z,4.29
2022-11-24T20:03:19.539Z,3.89
2022-11-24T20:05:20.929Z,3.98
2022-11-24T20:07:24.197Z,4.00
2022-11-24T20:09:25.975Z,3.83
2022-11-24T20:11:28.527Z,3.71
2022-11-24T20:13:30.445Z,3.84
2022-11-24T20:15:33.574Z,3.71
2022-11-24T20:17:35.221Z,3.93
2022-11-24T20:19:36.799Z,4.14
2022-11-24T20:21:38.967Z,4.28
2022-11-24T20:23:42.534Z,4.14
2022-11-24T20:25:44.062Z,4.03
2022-11-24T20:27:45.681Z,3.90
2022-11-24T20:29:47.295Z,3.90
2022-11-24T20:31:49.800Z,4.09
2022-11-24T20:33:51.473Z,3.94
2022-11-24T20:35:52.785Z,3.83
2022-11-24T20:37:54.593Z,3.85
2022-11-24T20:39:57.556Z,3.84
2022-11-24T20:41:59.061Z,3.87
2022-11-24T20:44:02.745Z,3.86
2022-11-24T20:46:05.853Z,3.71
2022-11-24T20:48:07.463Z,3.69
2022-11-24T20:50:09.896Z,3.71
2022-11-24T20:52:11.528Z,3.72
2022-11-24T20:54:13.530Z,3.76
2022-11-24T20:56:18.497Z,3.76
2022-11-24T20:58:20.021Z,3.74
2022-11-24T21:00:21.705Z,3.85
2022-11-24T21:02:23.418Z,3.90
2022-11-24T21:04:26.777Z,3.89
2022-11-24T21:06:28.754Z,3.76
2022-11-24T21:08:33.035Z,3.75
2022-11-24T21:10:34.587Z,3.79
2022-11-24T21:12:37.293Z,3.76
2022-11-24T21:14:38.994Z,3.64
2022-11-24T21:16:41.898Z,3.67
2022-11-24T21:18:44.892Z,3.84
2022-11-24T21:20:46.652Z,3.78
2022-11-24T21:22:48.238Z,3.77
2022-11-24T21:24:49.773Z,3.81
2022-11-24T21:26:51.404Z,3.85
2022-11-24T21:28:54.282Z,3.93
2022-11-24T21:30:55.867Z,3.94
2022-11-24T21:32:57.337Z,3.69
2022-11-24T21:34:58.911Z,3.64
2022-11-24T21:37:00.233Z,3.57
2022-11-24T21:39:03.375Z,3.66
2022-11-24T21:41:07.600Z,3.93
2022-11-24T21:43:09.141Z,3.86
2022-11-24T21:45:12.047Z,3.70
2022-11-24T21:47:13.639Z,3.67
2022-11-24T21:49:14.946Z,3.87
2022-11-24T21:51:18.138Z,3.80
2022-11-24T21:53:19.669Z,3.66
2022-11-24T21:55:21.005Z,3.68
2022-11-24T21:57:22.547Z,3.73
2022-11-24T21:59:23.867Z,3.90
2022-11-24T22:01:28.335Z,3.82
2022-11-24T22:03:29.995Z,3.60
2022-11-24T22:05:31.319Z,3.61
2022-11-24T22:07:33.149Z,3.73
2022-11-24T22:09:34.723Z,3.71
2022-11-24T22:11:36.043Z,3.60
2022-11-24T22:13:37.981Z,3.69
2022-11-24T22:15:39.524Z,3.91
2022-11-24T22:17:42.297Z,3.99
2022-11-24T22:19:43.820Z,4.03
2022-11-24T22:21:45.215Z,4.18
2022-11-24T22:23:50.303Z,4.17
2022-11-24T22:25:51.845Z,4.16
2022-11-24T22:27:53.226Z,4.22
2022-11-24T22:29:59.148Z,4.19
2022-11-24T22:32:00.750Z,4.25
2022-11-24T22:34:04.784Z,4.10
2022-11-24T22:36:07.418Z,4.15
2022-11-24T22:38:08.939Z,4.18
2022-11-24T22:40:10.708Z,4.21
2022-11-24T22:42:12.336Z,4.37
2022-11-24T22:44:13.872Z,4.34
2022-11-24T22:46:15.935Z,4.52
2022-11-24T22:48:17.531Z,4.48
2022-11-24T22:50:20.277Z,4.55
2022-11-24T22:52:21.864Z,4.40
2022-11-24T22:54:23.216Z,4.32
2022-11-24T22:56:25.211Z,4.32
2022-11-24T22:58:26.798Z,4.16
2022-11-24T23:00:28.371Z,4.21
2022-11-24T23:02:29.750Z,4.29
2022-11-24T23:04:31.304Z,4.29
2022-11-24T23:06:34.054Z,4.15
2022-11-24T23:08:36.435Z,4.30
2022-11-24T23:10:38.124Z,4.45
2022-11-24T23:12:39.674Z,4.46
2022-11-24T23:14:41.035Z,4.56
2022-11-24T23:16:43.069Z,4.49
2022-11-24T23:18:51.033Z,4.54
2022-11-24T23:20:55.216Z,4.62
2022-11-24T23:22:57.926Z,4.80
2022-11-24T23:24:59.475Z,4.79
2022-11-24T23:27:00.788Z,4.93
2022-11-24T23:29:02.788Z,4.70
2022-11-24T23:31:06.659Z,4.54
2022-11-24T23:33:08.195Z,4.44
2022-11-24T23:35:13.615Z,4.38
2022-11-24T23:37:15.602Z,4.35
2022-11-24T23:39:18.314Z,4.37
2022-11-24T23:41:21.450Z,4.37
2022-11-24T23:43:28.417Z,4.46
2022-11-24T23:45:30.024Z,4.37
2022-11-24T23:47:31.953Z,4.07
2022-11-24T23:49:33.589Z,4.13
2022-11-24T23:51:34.903Z,4.19
2022-11-24T23:53:36.988Z,4.31
2022-11-24T23:55:39.899Z,4.36
2022-11-24T23:57:41.428Z,4.02
2022-11-24T23:59:42.757Z,4.28
